sensor_id;sensor_type;location;lat;lon;timestamp;P1;durP1;ratioP1;P2;durP2;ratioP2
56523;SDS011;42422;47.540;18.712;2024-03-23T00:55:51;16.63;;;7.60;;
56523;SDS011;42422;47.540;18.712;2024-03-23T00:59:15;22.48;;;9.82;;
56523;SDS011;42422;47.540;18.712;2024-03-23T01:02:40;18.30;;;9.25;;
56523;SDS011;42422;47.540;18.712;2024-03-23T01:06:04;14.02;;;8.20;;
56523;SDS011;42422;47.540;18.712;2024-03-23T01:09:28;16.88;;;9.68;;
56523;SDS011;42422;47.540;18.712;2024-03-23T01:12:52;18.23;;;9.10;;
56523;SDS011;42422;47.540;18.712;2024-03-23T01:16:16;20.13;;;9.00;;
56523;SDS011;42422;47.540;18.712;2024-03-23T01:19:40;17.70;;;7.97;;
56523;SDS011;42422;47.540;18.712;2024-03-23T01:23:04;23.45;;;9.15;;
56523;SDS011;42422;47.540;18.712;2024-03-23T01:26:28;18.65;;;8.65;;
56523;SDS011;42422;47.540;18.712;2024-03-23T01:29:52;14.95;;;9.18;;
56523;SDS011;42422;47.540;18.712;2024-03-23T01:33:16;19.73;;;8.93;;
56523;SDS011;42422;47.540;18.712;2024-03-23T01:36:40;18.60;;;9.35;;
56523;SDS011;42422;47.540;18.712;2024-03-23T01:40:04;19.88;;;7.80;;
56523;SDS011;42422;47.540;18.712;2024-03-23T01:43:28;20.50;;;7.97;;
56523;SDS011;42422;47.540;18.712;2024-03-23T01:46:52;25.08;;;8.88;;
56523;SDS011;42422;47.540;18.712;2024-03-23T01:50:19;18.67;;;7.80;;
56523;SDS011;42422;47.540;18.712;2024-03-23T01:53:43;17.85;;;8.20;;
56523;SDS011;42422;47.540;18.712;2024-03-23T01:57:07;18.27;;;8.10;;
56523;SDS011;42422;47.540;18.712;2024-03-23T02:00:31;17.27;;;7.75;;
56523;SDS011;42422;47.540;18.712;2024-03-23T02:03:55;15.07;;;7.82;;
56523;SDS011;42422;47.540;18.712;2024-03-23T02:07:19;19.55;;;8.10;;
56523;SDS011;42422;47.540;18.712;2024-03-23T02:10:43;19.13;;;8.30;;
56523;SDS011;42422;47.540;18.712;2024-03-23T02:14:07;18.40;;;9.02;;
56523;SDS011;42422;47.540;18.712;2024-03-23T02:17:33;17.17;;;8.40;;
56523;SDS011;42422;47.540;18.712;2024-03-23T02:20:57;17.52;;;7.53;;
56523;SDS011;42422;47.540;18.712;2024-03-23T02:24:21;17.13;;;8.45;;
56523;SDS011;42422;47.540;18.712;2024-03-23T02:27:45;17.50;;;8.13;;
56523;SDS011;42422;47.540;18.712;2024-03-23T02:31:09;18.17;;;8.57;;
56523;SDS011;42422;47.540;18.712;2024-03-23T02:34:34;15.50;;;8.10;;
56523;SDS011;42422;47.540;18.712;2024-03-23T02:37:58;22.60;;;9.32;;
56523;SDS011;42422;47.540;18.712;2024-03-23T02:41:22;16.73;;;9.13;;
56523;SDS011;42422;47.540;18.712;2024-03-23T02:44:46;18.13;;;8.50;;
56523;SDS011;42422;47.540;18.712;2024-03-23T02:48:10;18.60;;;8.88;;
56523;SDS011;42422;47.540;18.712;2024-03-23T02:51:34;23.65;;;9.90;;
56523;SDS011;42422;47.540;18.712;2024-03-23T02:54:57;16.67;;;9.63;;
56523;SDS011;42422;47.540;18.712;2024-03-23T02:58:22;22.40;;;10.43;;
56523;SDS011;42422;47.540;18.712;2024-03-23T03:01:46;19.95;;;10.02;;
56523;SDS011;42422;47.540;18.712;2024-03-23T03:05:10;27.98;;;10.77;;
56523;SDS011;42422;47.540;18.712;2024-03-23T03:08:34;24.77;;;11.63;;
56523;SDS011;42422;47.540;18.712;2024-03-23T03:12:00;18.63;;;9.68;;
56523;SDS011;42422;47.540;18.712;2024-03-23T03:15:23;27.50;;;11.05;;
56523;SDS011;42422;47.540;18.712;2024-03-23T03:18:47;27.23;;;11.27;;
56523;SDS011;42422;47.540;18.712;2024-03-23T03:22:11;22.88;;;10.60;;
56523;SDS011;42422;47.540;18.712;2024-03-23T03:25:35;19.85;;;9.68;;
56523;SDS011;42422;47.540;18.712;2024-03-23T03:28:59;21.77;;;10.27;;
56523;SDS011;42422;47.540;18.712;2024-03-23T03:32:24;21.73;;;10.07;;
56523;SDS011;42422;47.540;18.712;2024-03-23T03:35:48;19.75;;;9.63;;
56523;SDS011;42422;47.540;18.712;2024-03-23T03:39:12;22.08;;;10.30;;
56523;SDS011;42422;47.540;18.712;2024-03-23T03:42:36;20.65;;;9.63;;
56523;SDS011;42422;47.540;18.712;2024-03-23T03:46:00;21.83;;;10.68;;
56523;SDS011;42422;47.540;18.712;2024-03-23T03:49:24;21.30;;;9.30;;
56523;SDS011;42422;47.540;18.712;2024-03-23T03:52:48;24.92;;;9.98;;
56523;SDS011;42422;47.540;18.712;2024-03-23T03:56:12;23.52;;;10.50;;
56523;SDS011;42422;47.540;18.712;2024-03-23T03:59:35;17.52;;;9.15;;
56523;SDS011;42422;47.540;18.712;2024-03-23T04:03:00;17.30;;;9.60;;
56523;SDS011;42422;47.540;18.712;2024-03-23T04:06:24;19.65;;;9.90;;
56523;SDS011;42422;47.540;18.712;2024-03-23T04:09:48;17.67;;;9.38;;
56523;SDS011;42422;47.540;18.712;2024-03-23T04:13:12;19.05;;;10.02;;
56523;SDS011;42422;47.540;18.712;2024-03-23T04:16:36;18.38;;;9.73;;
56523;SDS011;42422;47.540;18.712;2024-03-23T04:20:00;23.35;;;10.20;;
56523;SDS011;42422;47.540;18.712;2024-03-23T04:23:24;20.88;;;8.98;;
56523;SDS011;42422;47.540;18.712;2024-03-23T04:26:50;23.23;;;9.15;;
56523;SDS011;42422;47.540;18.712;2024-03-23T04:30:13;18.23;;;9.65;;
56523;SDS011;42422;47.540;18.712;2024-03-23T04:33:37;18.27;;;9.35;;
56523;SDS011;42422;47.540;18.712;2024-03-23T04:37:01;18.98;;;9.23;;
56523;SDS011;42422;47.540;18.712;2024-03-23T04:40:25;17.17;;;8.85;;
56523;SDS011;42422;47.540;18.712;2024-03-23T04:43:49;18.42;;;8.75;;
56523;SDS011;42422;47.540;18.712;2024-03-23T04:47:13;20.88;;;8.57;;
56523;SDS011;42422;47.540;18.712;2024-03-23T04:50:37;19.13;;;9.85;;
56523;SDS011;42422;47.540;18.712;2024-03-23T04:54:02;15.60;;;8.43;;
56523;SDS011;42422;47.540;18.712;2024-03-23T04:57:26;15.50;;;8.32;;
56523;SDS011;42422;47.540;18.712;2024-03-23T05:00:56;15.00;;;8.95;;
56523;SDS011;42422;47.540;18.712;2024-03-23T05:04:20;16.42;;;8.00;;
56523;SDS011;42422;47.540;18.712;2024-03-23T05:07:44;15.77;;;8.10;;
56523;SDS011;42422;47.540;18.712;2024-03-23T05:11:08;14.73;;;8.00;;
56523;SDS011;42422;47.540;18.712;2024-03-23T05:14:32;16.02;;;8.38;;
56523;SDS011;42422;47.540;18.712;2024-03-23T05:17:56;22.92;;;8.80;;
56523;SDS011;42422;47.540;18.712;2024-03-23T05:21:20;14.40;;;7.78;;
56523;SDS011;42422;47.540;18.712;2024-03-23T05:24:44;18.70;;;9.07;;
56523;SDS011;42422;47.540;18.712;2024-03-23T05:28:08;13.23;;;7.82;;
56523;SDS011;42422;47.540;18.712;2024-03-23T05:31:35;16.65;;;9.23;;
56523;SDS011;42422;47.540;18.712;2024-03-23T05:34:59;15.25;;;8.77;;
56523;SDS011;42422;47.540;18.712;2024-03-23T05:38:24;14.73;;;8.43;;
56523;SDS011;42422;47.540;18.712;2024-03-23T05:41:48;15.10;;;8.23;;
56523;SDS011;42422;47.540;18.712;2024-03-23T05:45:12;16.63;;;9.00;;
56523;SDS011;42422;47.540;18.712;2024-03-23T05:48:36;19.63;;;9.65;;
56523;SDS011;42422;47.540;18.712;2024-03-23T05:52:00;20.02;;;9.00;;
56523;SDS011;42422;47.540;18.712;2024-03-23T05:55:24;18.35;;;9.35;;
56523;SDS011;42422;47.540;18.712;2024-03-23T05:58:48;18.20;;;8.68;;
56523;SDS011;42422;47.540;18.712;2024-03-23T06:02:12;21.35;;;10.13;;
56523;SDS011;42422;47.540;18.712;2024-03-23T06:05:39;17.13;;;9.60;;
56523;SDS011;42422;47.540;18.712;2024-03-23T06:09:02;18.20;;;9.93;;
56523;SDS011;42422;47.540;18.712;2024-03-23T06:12:26;16.90;;;8.88;;
56523;SDS011;42422;47.540;18.712;2024-03-23T06:15:54;16.40;;;8.70;;
56523;SDS011;42422;47.540;18.712;2024-03-23T06:19:18;17.55;;;9.13;;
56523;SDS011;42422;47.540;18.712;2024-03-23T06:22:42;17.63;;;9.20;;
56523;SDS011;42422;47.540;18.712;2024-03-23T06:26:06;19.45;;;10.45;;
56523;SDS011;42422;47.540;18.712;2024-03-23T06:29:30;17.73;;;9.55;;
56523;SDS011;42422;47.540;18.712;2024-03-23T06:32:54;19.10;;;9.65;;
56523;SDS011;42422;47.540;18.712;2024-03-23T06:36:18;19.65;;;9.55;;
56523;SDS011;42422;47.540;18.712;2024-03-23T06:39:42;19.17;;;8.88;;
56523;SDS011;42422;47.540;18.712;2024-03-23T06:43:06;15.80;;;8.35;;
56523;SDS011;42422;47.540;18.712;2024-03-23T06:46:29;17.25;;;9.02;;
56523;SDS011;42422;47.540;18.712;2024-03-23T06:49:53;16.52;;;8.63;;
56523;SDS011;42422;47.540;18.712;2024-03-23T06:53:20;19.00;;;9.35;;
56523;SDS011;42422;47.540;18.712;2024-03-23T06:56:44;15.85;;;8.88;;
56523;SDS011;42422;47.540;18.712;2024-03-23T07:00:08;17.60;;;8.48;;
56523;SDS011;42422;47.540;18.712;2024-03-23T07:03:32;14.88;;;8.52;;
56523;SDS011;42422;47.540;18.712;2024-03-23T07:06:56;15.57;;;8.73;;
56523;SDS011;42422;47.540;18.712;2024-03-23T07:10:20;14.32;;;8.35;;
56523;SDS011;42422;47.540;18.712;2024-03-23T07:13:45;17.30;;;8.60;;
56523;SDS011;42422;47.540;18.712;2024-03-23T07:17:09;17.08;;;8.40;;
56523;SDS011;42422;47.540;18.712;2024-03-23T07:20:33;18.77;;;9.38;;
56523;SDS011;42422;47.540;18.712;2024-03-23T07:23:56;17.58;;;9.48;;
56523;SDS011;42422;47.540;18.712;2024-03-23T07:27:20;17.65;;;9.60;;
56523;SDS011;42422;47.540;18.712;2024-03-23T07:30:44;18.05;;;9.57;;
56523;SDS011;42422;47.540;18.712;2024-03-23T07:34:08;15.88;;;9.25;;
56523;SDS011;42422;47.540;18.712;2024-03-23T07:37:32;16.92;;;8.68;;
56523;SDS011;42422;47.540;18.712;2024-03-23T07:41:05;13.45;;;8.95;;
56523;SDS011;42422;47.540;18.712;2024-03-23T07:44:30;18.38;;;9.18;;
56523;SDS011;42422;47.540;18.712;2024-03-23T07:47:54;17.25;;;8.63;;
56523;SDS011;42422;47.540;18.712;2024-03-23T07:51:20;16.20;;;9.38;;
56523;SDS011;42422;47.540;18.712;2024-03-23T07:54:44;21.73;;;10.27;;
56523;SDS011;42422;47.540;18.712;2024-03-23T07:58:08;18.58;;;9.43;;
56523;SDS011;42422;47.540;18.712;2024-03-23T08:01:32;17.27;;;8.77;;
56523;SDS011;42422;47.540;18.712;2024-03-23T08:04:56;14.02;;;7.82;;
56523;SDS011;42422;47.540;18.712;2024-03-23T08:08:19;16.52;;;8.10;;
56523;SDS011;42422;47.540;18.712;2024-03-23T08:11:43;14.77;;;8.18;;
56523;SDS011;42422;47.540;18.712;2024-03-23T08:15:07;13.10;;;7.45;;
56523;SDS011;42422;47.540;18.712;2024-03-23T08:18:31;14.48;;;7.18;;
56523;SDS011;42422;47.540;18.712;2024-03-23T08:21:55;10.90;;;6.70;;
56523;SDS011;42422;47.540;18.712;2024-03-23T08:25:19;13.68;;;7.55;;
56523;SDS011;42422;47.540;18.712;2024-03-23T08:28:43;12.23;;;7.32;;
56523;SDS011;42422;47.540;18.712;2024-03-23T08:32:07;11.73;;;6.93;;
56523;SDS011;42422;47.540;18.712;2024-03-23T08:35:31;11.73;;;7.15;;
56523;SDS011;42422;47.540;18.712;2024-03-23T08:38:55;14.27;;;7.20;;
56523;SDS011;42422;47.540;18.712;2024-03-23T08:42:19;12.45;;;6.28;;
56523;SDS011;42422;47.540;18.712;2024-03-23T08:45:44;14.23;;;7.55;;
56523;SDS011;42422;47.540;18.712;2024-03-23T08:49:08;11.63;;;7.07;;
56523;SDS011;42422;47.540;18.712;2024-03-23T08:52:32;11.27;;;6.40;;
56523;SDS011;42422;47.540;18.712;2024-03-23T08:55:56;10.93;;;6.43;;
56523;SDS011;42422;47.540;18.712;2024-03-23T08:59:20;9.43;;;5.97;;
56523;SDS011;42422;47.540;18.712;2024-03-23T09:02:47;10.00;;;6.45;;
56523;SDS011;42422;47.540;18.712;2024-03-23T09:06:12;12.70;;;6.35;;
56523;SDS011;42422;47.540;18.712;2024-03-23T09:09:38;11.00;;;7.00;;
56523;SDS011;42422;47.540;18.712;2024-03-23T09:13:04;10.07;;;6.82;;
56523;SDS011;42422;47.540;18.712;2024-03-23T09:16:29;9.20;;;5.53;;
56523;SDS011;42422;47.540;18.712;2024-03-23T09:19:52;12.63;;;6.65;;
56523;SDS011;42422;47.540;18.712;2024-03-23T09:23:18;8.88;;;5.40;;
56523;SDS011;42422;47.540;18.712;2024-03-23T09:26:42;11.10;;;6.75;;
56523;SDS011;42422;47.540;18.712;2024-03-23T09:30:06;10.77;;;6.72;;
56523;SDS011;42422;47.540;18.712;2024-03-23T09:33:30;8.60;;;5.90;;
56523;SDS011;42422;47.540;18.712;2024-03-23T09:36:54;10.25;;;6.22;;
56523;SDS011;42422;47.540;18.712;2024-03-23T09:40:18;10.88;;;6.97;;
56523;SDS011;42422;47.540;18.712;2024-03-23T09:43:42;12.55;;;6.78;;
56523;SDS011;42422;47.540;18.712;2024-03-23T09:47:06;10.90;;;6.28;;
56523;SDS011;42422;47.540;18.712;2024-03-23T09:50:31;10.65;;;6.20;;
56523;SDS011;42422;47.540;18.712;2024-03-23T09:53:55;12.20;;;6.03;;
56523;SDS011;42422;47.540;18.712;2024-03-23T09:57:19;11.75;;;6.13;;
56523;SDS011;42422;47.540;18.712;2024-03-23T10:00:43;12.35;;;5.88;;
56523;SDS011;42422;47.540;18.712;2024-03-23T10:04:07;12.82;;;7.43;;
56523;SDS011;42422;47.540;18.712;2024-03-23T10:07:42;12.75;;;6.85;;
56523;SDS011;42422;47.540;18.712;2024-03-23T10:11:16;13.15;;;6.50;;
56523;SDS011;42422;47.540;18.712;2024-03-23T10:14:43;11.63;;;6.20;;
56523;SDS011;42422;47.540;18.712;2024-03-23T10:18:19;10.80;;;5.82;;
56523;SDS011;42422;47.540;18.712;2024-03-23T10:21:55;7.93;;;5.63;;
56523;SDS011;42422;47.540;18.712;2024-03-23T10:25:24;9.80;;;5.47;;
56523;SDS011;42422;47.540;18.712;2024-03-23T10:32:17;6.82;;;4.18;;
56523;SDS011;42422;47.540;18.712;2024-03-23T10:35:42;5.85;;;3.72;;
56523;SDS011;42422;47.540;18.712;2024-03-23T10:39:06;8.20;;;3.72;;
56523;SDS011;42422;47.540;18.712;2024-03-23T10:42:31;7.47;;;4.38;;
56523;SDS011;42422;47.540;18.712;2024-03-23T10:45:56;11.00;;;4.35;;
56523;SDS011;42422;47.540;18.712;2024-03-23T10:49:25;9.00;;;4.15;;
56523;SDS011;42422;47.540;18.712;2024-03-23T10:52:49;8.85;;;4.03;;
56523;SDS011;42422;47.540;18.712;2024-03-23T10:56:13;5.45;;;3.53;;
56523;SDS011;42422;47.540;18.712;2024-03-23T10:59:41;6.95;;;3.58;;
56523;SDS011;42422;47.540;18.712;2024-03-23T11:06:58;7.05;;;4.15;;
56523;SDS011;42422;47.540;18.712;2024-03-23T11:10:25;6.32;;;3.13;;
56523;SDS011;42422;47.540;18.712;2024-03-23T11:13:51;5.18;;;3.35;;
56523;SDS011;42422;47.540;18.712;2024-03-23T11:17:31;8.40;;;4.35;;
56523;SDS011;42422;47.540;18.712;2024-03-23T11:20:54;8.95;;;3.95;;
56523;SDS011;42422;47.540;18.712;2024-03-23T11:24:19;6.45;;;3.30;;
56523;SDS011;42422;47.540;18.712;2024-03-23T11:27:48;5.65;;;3.75;;
56523;SDS011;42422;47.540;18.712;2024-03-23T11:31:12;5.38;;;3.65;;
56523;SDS011;42422;47.540;18.712;2024-03-23T11:34:38;5.95;;;3.72;;
56523;SDS011;42422;47.540;18.712;2024-03-23T11:38:03;6.35;;;3.63;;
56523;SDS011;42422;47.540;18.712;2024-03-23T11:41:47;5.88;;;4.00;;
56523;SDS011;42422;47.540;18.712;2024-03-23T11:45:11;4.93;;;3.25;;
56523;SDS011;42422;47.540;18.712;2024-03-23T11:48:35;5.25;;;3.25;;
56523;SDS011;42422;47.540;18.712;2024-03-23T11:52:05;5.82;;;3.78;;
56523;SDS011;42422;47.540;18.712;2024-03-23T11:55:39;9.88;;;3.78;;
56523;SDS011;42422;47.540;18.712;2024-03-23T11:59:03;6.10;;;3.65;;
56523;SDS011;42422;47.540;18.712;2024-03-23T12:02:27;6.05;;;3.30;;
56523;SDS011;42422;47.540;18.712;2024-03-23T12:05:54;5.47;;;3.53;;
56523;SDS011;42422;47.540;18.712;2024-03-23T12:09:34;6.30;;;3.40;;
56523;SDS011;42422;47.540;18.712;2024-03-23T12:12:59;6.82;;;2.95;;
56523;SDS011;42422;47.540;18.712;2024-03-23T12:16:24;5.03;;;3.00;;
56523;SDS011;42422;47.540;18.712;2024-03-23T12:19:48;8.18;;;3.90;;
56523;SDS011;42422;47.540;18.712;2024-03-23T12:23:12;5.15;;;2.88;;
56523;SDS011;42422;47.540;18.712;2024-03-23T12:26:36;4.45;;;3.00;;
56523;SDS011;42422;47.540;18.712;2024-03-23T12:30:00;5.07;;;2.80;;
56523;SDS011;42422;47.540;18.712;2024-03-23T12:33:23;5.40;;;3.00;;
56523;SDS011;42422;47.540;18.712;2024-03-23T12:36:47;6.72;;;3.55;;
56523;SDS011;42422;47.540;18.712;2024-03-23T12:40:11;6.47;;;3.00;;
56523;SDS011;42422;47.540;18.712;2024-03-23T12:43:36;7.80;;;3.17;;
56523;SDS011;42422;47.540;18.712;2024-03-23T12:47:00;5.10;;;3.08;;
56523;SDS011;42422;47.540;18.712;2024-03-23T12:50:24;6.45;;;2.92;;
56523;SDS011;42422;47.540;18.712;2024-03-23T12:53:47;5.10;;;2.88;;
56523;SDS011;42422;47.540;18.712;2024-03-23T12:57:11;5.97;;;2.67;;
56523;SDS011;42422;47.540;18.712;2024-03-23T13:00:35;4.22;;;2.90;;
56523;SDS011;42422;47.540;18.712;2024-03-23T13:04:00;4.50;;;2.25;;
56523;SDS011;42422;47.540;18.712;2024-03-23T13:07:23;4.63;;;2.70;;
56523;SDS011;42422;47.540;18.712;2024-03-23T13:10:47;9.43;;;3.28;;
56523;SDS011;42422;47.540;18.712;2024-03-23T13:14:14;5.10;;;2.47;;
56523;SDS011;42422;47.540;18.712;2024-03-23T13:17:41;5.80;;;2.33;;
56523;SDS011;42422;47.540;18.712;2024-03-23T13:21:05;4.95;;;2.40;;
56523;SDS011;42422;47.540;18.712;2024-03-23T13:24:29;5.63;;;2.70;;
56523;SDS011;42422;47.540;18.712;2024-03-23T13:27:54;5.28;;;2.40;;
56523;SDS011;42422;47.540;18.712;2024-03-23T13:31:17;6.00;;;2.50;;
56523;SDS011;42422;47.540;18.712;2024-03-23T13:34:41;4.18;;;2.88;;
56523;SDS011;42422;47.540;18.712;2024-03-23T13:38:13;6.03;;;2.97;;
56523;SDS011;42422;47.540;18.712;2024-03-23T13:41:41;6.80;;;2.70;;
56523;SDS011;42422;47.540;18.712;2024-03-23T13:45:05;3.88;;;2.50;;
56523;SDS011;42422;47.540;18.712;2024-03-23T13:48:29;5.43;;;2.90;;
56523;SDS011;42422;47.540;18.712;2024-03-23T13:51:54;4.60;;;2.38;;
56523;SDS011;42422;47.540;18.712;2024-03-23T13:55:18;5.63;;;3.08;;
56523;SDS011;42422;47.540;18.712;2024-03-23T13:58:42;4.10;;;2.95;;
56523;SDS011;42422;47.540;18.712;2024-03-23T14:02:06;3.92;;;2.40;;
56523;SDS011;42422;47.540;18.712;2024-03-23T14:05:30;4.57;;;2.70;;
56523;SDS011;42422;47.540;18.712;2024-03-23T14:08:54;5.85;;;2.85;;
56523;SDS011;42422;47.540;18.712;2024-03-23T14:12:20;4.85;;;3.38;;
56523;SDS011;42422;47.540;18.712;2024-03-23T14:15:45;5.75;;;2.80;;
56523;SDS011;42422;47.540;18.712;2024-03-23T14:19:09;4.72;;;2.70;;
56523;SDS011;42422;47.540;18.712;2024-03-23T14:22:36;5.65;;;2.35;;
56523;SDS011;42422;47.540;18.712;2024-03-23T14:26:00;3.88;;;2.50;;
56523;SDS011;42422;47.540;18.712;2024-03-23T14:29:23;4.40;;;2.75;;
56523;SDS011;42422;47.540;18.712;2024-03-23T14:32:48;2.88;;;2.25;;
56523;SDS011;42422;47.540;18.712;2024-03-23T14:36:13;8.80;;;2.47;;
56523;SDS011;42422;47.540;18.712;2024-03-23T14:39:37;5.63;;;2.30;;
56523;SDS011;42422;47.540;18.712;2024-03-23T14:43:01;9.52;;;2.80;;
56523;SDS011;42422;47.540;18.712;2024-03-23T14:46:25;4.40;;;2.30;;
56523;SDS011;42422;47.540;18.712;2024-03-23T14:49:49;4.28;;;2.47;;
56523;SDS011;42422;47.540;18.712;2024-03-23T14:53:13;6.53;;;2.33;;
56523;SDS011;42422;47.540;18.712;2024-03-23T14:56:38;9.00;;;3.13;;
56523;SDS011;42422;47.540;18.712;2024-03-23T15:00:02;3.47;;;1.75;;
56523;SDS011;42422;47.540;18.712;2024-03-23T15:03:29;4.55;;;2.28;;
56523;SDS011;42422;47.540;18.712;2024-03-23T15:06:53;4.32;;;2.30;;
56523;SDS011;42422;47.540;18.712;2024-03-23T15:10:17;4.88;;;2.30;;
56523;SDS011;42422;47.540;18.712;2024-03-23T15:13:43;4.05;;;2.30;;
56523;SDS011;42422;47.540;18.712;2024-03-23T15:17:07;3.40;;;2.40;;
56523;SDS011;42422;47.540;18.712;2024-03-23T15:20:31;7.13;;;2.55;;
56523;SDS011;42422;47.540;18.712;2024-03-23T15:23:55;2.75;;;1.92;;
56523;SDS011;42422;47.540;18.712;2024-03-23T15:27:19;3.67;;;2.10;;
56523;SDS011;42422;47.540;18.712;2024-03-23T15:30:43;4.75;;;2.30;;
56523;SDS011;42422;47.540;18.712;2024-03-23T15:34:07;4.93;;;2.50;;
56523;SDS011;42422;47.540;18.712;2024-03-23T15:37:32;4.68;;;2.75;;
56523;SDS011;42422;47.540;18.712;2024-03-23T15:40:56;5.00;;;3.10;;
56523;SDS011;42422;47.540;18.712;2024-03-23T15:44:20;3.22;;;2.00;;
56523;SDS011;42422;47.540;18.712;2024-03-23T15:47:44;7.45;;;2.72;;
56523;SDS011;42422;47.540;18.712;2024-03-23T15:51:11;3.65;;;2.40;;
56523;SDS011;42422;47.540;18.712;2024-03-23T15:54:36;4.22;;;2.45;;
56523;SDS011;42422;47.540;18.712;2024-03-23T15:58:00;6.30;;;2.78;;
56523;SDS011;42422;47.540;18.712;2024-03-23T16:01:30;4.85;;;2.53;;
56523;SDS011;42422;47.540;18.712;2024-03-23T16:04:54;5.20;;;2.33;;
56523;SDS011;42422;47.540;18.712;2024-03-23T16:08:19;4.80;;;2.17;;
56523;SDS011;42422;47.540;18.712;2024-03-23T16:11:43;2.97;;;1.92;;
56523;SDS011;42422;47.540;18.712;2024-03-23T16:15:08;4.75;;;2.20;;
56523;SDS011;42422;47.540;18.712;2024-03-23T16:18:32;4.05;;;2.50;;
56523;SDS011;42422;47.540;18.712;2024-03-23T16:21:57;3.33;;;1.92;;
56523;SDS011;42422;47.540;18.712;2024-03-23T16:25:21;7.13;;;2.90;;
56523;SDS011;42422;47.540;18.712;2024-03-23T16:28:45;4.88;;;2.25;;
56523;SDS011;42422;47.540;18.712;2024-03-23T16:32:09;6.20;;;2.58;;
56523;SDS011;42422;47.540;18.712;2024-03-23T16:35:34;5.00;;;2.00;;
56523;SDS011;42422;47.540;18.712;2024-03-23T16:38:58;26.88;;;2.60;;
56523;SDS011;42422;47.540;18.712;2024-03-23T16:42:22;13.60;;;1.50;;
56523;SDS011;42422;47.540;18.712;2024-03-23T16:45:59;6.32;;;0.65;;
56523;SDS011;42422;47.540;18.712;2024-03-23T16:49:23;2.83;;;0.88;;
56523;SDS011;42422;47.540;18.712;2024-03-23T16:52:46;0.95;;;0.60;;
56523;SDS011;42422;47.540;18.712;2024-03-23T16:56:11;1.42;;;0.70;;
56523;SDS011;42422;47.540;18.712;2024-03-23T16:59:35;2.17;;;0.70;;
56523;SDS011;42422;47.540;18.712;2024-03-23T17:03:02;4.63;;;0.63;;
56523;SDS011;42422;47.540;18.712;2024-03-23T17:06:27;3.00;;;0.90;;
56523;SDS011;42422;47.540;18.712;2024-03-23T17:09:50;0.60;;;0.40;;
56523;SDS011;42422;47.540;18.712;2024-03-23T17:13:14;10.65;;;1.05;;
56523;SDS011;42422;47.540;18.712;2024-03-23T17:16:40;2.75;;;0.80;;
56523;SDS011;42422;47.540;18.712;2024-03-23T17:20:04;0.50;;;0.45;;
56523;SDS011;42422;47.540;18.712;2024-03-23T17:23:29;0.90;;;0.40;;
56523;SDS011;42422;47.540;18.712;2024-03-23T17:26:53;1.08;;;0.80;;
56523;SDS011;42422;47.540;18.712;2024-03-23T17:30:17;1.42;;;0.70;;
56523;SDS011;42422;47.540;18.712;2024-03-23T17:33:42;1.60;;;0.90;;
56523;SDS011;42422;47.540;18.712;2024-03-23T17:37:05;1.15;;;0.55;;
56523;SDS011;42422;47.540;18.712;2024-03-23T17:40:30;1.33;;;0.52;;
56523;SDS011;42422;47.540;18.712;2024-03-23T17:43:54;1.08;;;0.70;;
56523;SDS011;42422;47.540;18.712;2024-03-23T17:47:17;3.15;;;1.00;;
56523;SDS011;42422;47.540;18.712;2024-03-23T17:50:41;1.20;;;0.77;;
56523;SDS011;42422;47.540;18.712;2024-03-23T17:54:05;2.22;;;0.80;;
56523;SDS011;42422;47.540;18.712;2024-03-23T17:57:30;1.80;;;0.82;;
56523;SDS011;42422;47.540;18.712;2024-03-23T18:00:54;1.48;;;0.50;;
56523;SDS011;42422;47.540;18.712;2024-03-23T18:04:18;0.95;;;0.55;;
56523;SDS011;42422;47.540;18.712;2024-03-23T18:07:46;0.40;;;0.40;;
56523;SDS011;42422;47.540;18.712;2024-03-23T18:11:10;2.30;;;0.55;;
56523;SDS011;42422;47.540;18.712;2024-03-23T18:14:34;0.85;;;0.55;;
56523;SDS011;42422;47.540;18.712;2024-03-23T18:17:58;1.35;;;0.68;;
56523;SDS011;42422;47.540;18.712;2024-03-23T18:21:22;1.13;;;0.52;;
56523;SDS011;42422;47.540;18.712;2024-03-23T18:24:46;1.50;;;0.65;;
56523;SDS011;42422;47.540;18.712;2024-03-23T18:28:17;1.23;;;0.68;;
56523;SDS011;42422;47.540;18.712;2024-03-23T18:31:42;0.80;;;0.50;;
56523;SDS011;42422;47.540;18.712;2024-03-23T18:35:05;0.50;;;0.43;;
56523;SDS011;42422;47.540;18.712;2024-03-23T18:38:30;2.38;;;0.55;;
56523;SDS011;42422;47.540;18.712;2024-03-23T18:41:54;1.17;;;0.45;;
56523;SDS011;42422;47.540;18.712;2024-03-23T18:45:18;1.10;;;0.70;;
56523;SDS011;42422;47.540;18.712;2024-03-23T18:48:42;3.20;;;0.82;;
56523;SDS011;42422;47.540;18.712;2024-03-23T18:52:06;0.82;;;0.55;;
56523;SDS011;42422;47.540;18.712;2024-03-23T18:55:30;0.98;;;0.63;;
56523;SDS011;42422;47.540;18.712;2024-03-23T18:58:54;0.95;;;0.70;;
56523;SDS011;42422;47.540;18.712;2024-03-23T19:02:18;0.52;;;0.43;;
56523;SDS011;42422;47.540;18.712;2024-03-23T19:05:42;1.25;;;0.60;;
56523;SDS011;42422;47.540;18.712;2024-03-23T19:09:06;0.85;;;0.45;;
56523;SDS011;42422;47.540;18.712;2024-03-23T19:12:30;1.70;;;0.85;;
56523;SDS011;42422;47.540;18.712;2024-03-23T19:15:59;1.50;;;0.70;;
56523;SDS011;42422;47.540;18.712;2024-03-23T19:19:23;1.02;;;0.63;;
56523;SDS011;42422;47.540;18.712;2024-03-23T19:22:48;1.10;;;0.75;;
56523;SDS011;42422;47.540;18.712;2024-03-23T19:26:11;2.15;;;0.70;;
56523;SDS011;42422;47.540;18.712;2024-03-23T19:29:35;1.90;;;0.80;;
56523;SDS011;42422;47.540;18.712;2024-03-23T19:32:59;3.78;;;0.82;;
56523;SDS011;42422;47.540;18.712;2024-03-23T19:36:23;4.60;;;1.05;;
56523;SDS011;42422;47.540;18.712;2024-03-23T19:39:47;1.58;;;0.70;;
56523;SDS011;42422;47.540;18.712;2024-03-23T19:43:20;1.13;;;0.77;;
56523;SDS011;42422;47.540;18.712;2024-03-23T19:46:44;1.27;;;0.85;;
56523;SDS011;42422;47.540;18.712;2024-03-23T19:50:08;1.45;;;0.70;;
56523;SDS011;42422;47.540;18.712;2024-03-23T19:53:32;0.90;;;0.55;;
56523;SDS011;42422;47.540;18.712;2024-03-23T19:56:56;1.98;;;0.90;;
56523;SDS011;42422;47.540;18.712;2024-03-23T20:00:20;1.42;;;0.75;;
56523;SDS011;42422;47.540;18.712;2024-03-23T20:03:45;2.83;;;1.20;;
56523;SDS011;42422;47.540;18.712;2024-03-23T20:07:09;0.85;;;0.50;;
56523;SDS011;42422;47.540;18.712;2024-03-23T20:10:34;1.33;;;1.08;;
56523;SDS011;42422;47.540;18.712;2024-03-23T20:13:58;2.67;;;0.70;;
56523;SDS011;42422;47.540;18.712;2024-03-23T20:17:22;1.35;;;0.65;;
56523;SDS011;42422;47.540;18.712;2024-03-23T20:20:45;1.27;;;0.70;;
56523;SDS011;42422;47.540;18.712;2024-03-23T20:24:09;1.08;;;0.75;;
56523;SDS011;42422;47.540;18.712;2024-03-23T20:27:34;2.88;;;2.03;;
56523;SDS011;42422;47.540;18.712;2024-03-23T20:30:58;1.00;;;0.50;;
56523;SDS011;42422;47.540;18.712;2024-03-23T20:34:22;1.27;;;0.95;;
56523;SDS011;42422;47.540;18.712;2024-03-23T20:37:46;2.13;;;0.80;;
56523;SDS011;42422;47.540;18.712;2024-03-23T20:41:10;0.98;;;0.60;;
56523;SDS011;42422;47.540;18.712;2024-03-23T20:44:36;0.98;;;0.52;;
56523;SDS011;42422;47.540;18.712;2024-03-23T20:48:00;2.95;;;0.50;;
56523;SDS011;42422;47.540;18.712;2024-03-23T20:51:24;2.13;;;0.30;;
56523;SDS011;42422;47.540;18.712;2024-03-23T20:54:48;1.67;;;0.68;;
56523;SDS011;42422;47.540;18.712;2024-03-23T20:58:15;6.22;;;1.10;;
56523;SDS011;42422;47.540;18.712;2024-03-23T21:01:39;0.82;;;0.60;;
56523;SDS011;42422;47.540;18.712;2024-03-23T21:05:04;0.52;;;0.43;;
56523;SDS011;42422;47.540;18.712;2024-03-23T21:08:28;1.70;;;0.65;;